Minneapolis, Minnesota
Traffic Map
Current Weather Conditions
Minneapolis, Minnesota
Scattered Clouds
Scattered Clouds
62°
Feels Like: 62°
Wind Chill: 62° Ceiling: Unl
Heat Index: 62° Visibility: 10mi
Dew Point: 40° Wind: 8mph
Humidity: 44% Direction: 290° (WNW)
Pressure: 30.12in Gusts: 0mph
Raw Report DataKMSP 260153Z 29007KT 10SM FEW080 SCT100 17/04 A3012 RMK AO2 SLP200 T01670044
Traffic Incident Summary
Active as of:
Severity:
Category:
InformationThere was an issue retrieving the traffic information for this location. Please try a different location or try again shortly.
Advertisements
Track Severe Weather on mobile